createdAt,value
2023-03-10T00:01:36.116Z,1.00
2023-03-10T00:04:04.852Z,1.00
2023-03-10T00:06:36.354Z,1.00
2023-03-10T00:09:05.788Z,1.00
2023-03-10T00:11:34.093Z,1.00
2023-03-10T00:14:02.328Z,1.00
2023-03-10T00:16:32.096Z,1.00
2023-03-10T00:19:01.799Z,1.00
2023-03-10T00:21:31.912Z,1.00
2023-03-10T00:24:00.595Z,1.00
2023-03-10T00:26:30.689Z,1.00
2023-03-10T00:28:58.959Z,1.00
2023-03-10T00:31:31.722Z,1.00
2023-03-10T00:34:01.808Z,1.00
2023-03-10T00:36:33.314Z,1.00
2023-03-10T00:39:10.136Z,1.00
2023-03-10T00:41:43.207Z,1.00
2023-03-10T00:44:11.782Z,1.00
2023-03-10T00:46:45.164Z,1.00
2023-03-10T00:49:18.253Z,1.00
2023-03-10T00:51:49.652Z,99.90
2023-03-10T00:54:23.465Z,1.00
2023-03-10T00:56:55.344Z,1.00
2023-03-10T00:59:31.105Z,99.90
2023-03-10T01:02:06.738Z,1.00
2023-03-10T01:04:37.800Z,1.00
2023-03-10T01:07:24.662Z,99.90
2023-03-10T01:09:55.864Z,1.00
2023-03-10T01:12:24.329Z,1.00
2023-03-10T01:14:54.470Z,1.00
2023-03-10T01:17:26.280Z,1.00
2023-03-10T01:20:01.087Z,1.00
2023-03-10T01:22:29.259Z,1.00
2023-03-10T01:24:58.322Z,1.00
2023-03-10T01:27:27.934Z,1.00
2023-03-10T01:30:11.136Z,1.00
2023-03-10T01:32:41.362Z,99.90
2023-03-10T01:35:35.353Z,1.00
2023-03-10T01:38:05.559Z,57.70
2023-03-10T01:40:34.318Z,1.00
2023-03-10T01:43:34.070Z,1.00
2023-03-10T01:46:42.607Z,99.90
2023-03-10T01:49:21.665Z,99.90
2023-03-10T01:51:58.064Z,99.90
2023-03-10T01:54:30.524Z,1.00
2023-03-10T01:56:59.529Z,1.00
2023-03-10T02:05:53.078Z,1.00
2023-03-10T02:08:25.143Z,99.90
2023-03-10T02:10:53.581Z,1.00
2023-03-10T02:13:21.789Z,93.20
2023-03-10T02:15:50.675Z,1.00
2023-03-10T02:18:20.994Z,99.90
2023-03-10T02:20:57.809Z,99.90
2023-03-10T02:27:29.479Z,99.90
2023-03-10T02:30:05.265Z,99.90
2023-03-10T02:32:36.749Z,1.00
2023-03-10T02:35:06.460Z,1.00
2023-03-10T02:37:36.947Z,99.90
2023-03-10T02:40:23.912Z,1.00
2023-03-10T02:42:52.975Z,99.90
2023-03-10T02:45:23.102Z,1.00
2023-03-10T02:47:51.445Z,51.80
2023-03-10T02:50:19.995Z,1.00
2023-03-10T02:52:54.661Z,1.00
2023-03-10T02:55:23.149Z,99.90
2023-03-10T02:57:51.375Z,20.00
2023-03-10T03:03:04.008Z,99.90
2023-03-10T03:05:32.633Z,99.90
2023-03-10T03:08:02.655Z,99.90
2023-03-10T03:10:32.957Z,99.90
2023-03-10T03:13:03.070Z,99.90
2023-03-10T03:15:31.420Z,99.90
2023-03-10T03:17:59.742Z,18.60
2023-03-10T03:20:36.784Z,1.00
2023-03-10T03:23:05.804Z,99.90
2023-03-10T03:25:37.889Z,99.90
2023-03-10T03:28:07.084Z,99.90
2023-03-10T03:30:36.796Z,99.90
2023-03-10T03:33:07.542Z,99.90
2023-03-10T03:35:40.457Z,99.90
2023-03-10T03:38:09.167Z,99.90
2023-03-10T03:40:38.445Z,99.90
2023-03-10T03:43:07.452Z,99.90
2023-03-10T03:45:35.820Z,99.90
2023-03-10T03:48:04.144Z,99.90
2023-03-10T03:50:32.406Z,99.90
2023-03-10T03:53:02.313Z,99.90
2023-03-10T03:55:30.499Z,99.90
2023-03-10T03:57:59.157Z,99.90
2023-03-10T04:00:27.628Z,99.90
2023-03-10T04:02:56.358Z,99.90
2023-03-10T04:05:24.803Z,99.90
2023-03-10T04:11:00.101Z,99.90
2023-03-10T04:13:28.417Z,44.50
2023-03-10T04:15:57.724Z,62.30
2023-03-10T04:18:26.166Z,1.00
2023-03-10T04:20:54.561Z,1.00
2023-03-10T04:23:22.802Z,1.00
2023-03-10T04:25:52.442Z,99.90
2023-03-10T04:28:22.397Z,99.90
2023-03-10T04:30:50.710Z,1.00
2023-03-10T04:33:18.966Z,53.30
2023-03-10T04:42:05.816Z,1.00
2023-03-10T04:44:36.007Z,99.90
2023-03-10T04:47:04.711Z,99.90
2023-03-10T04:49:33.118Z,1.00
2023-03-10T04:52:01.379Z,99.90
2023-03-10T04:54:30.707Z,99.90
2023-03-10T04:57:02.086Z,99.90
2023-03-10T04:59:30.726Z,99.90
2023-03-10T05:02:00.673Z,99.90
2023-03-10T05:04:29.171Z,1.00
2023-03-10T05:06:57.484Z,1.00
2023-03-10T05:09:26.164Z,1.00
2023-03-10T05:11:54.615Z,99.90
2023-03-10T05:14:22.826Z,99.90
2023-03-10T05:16:52.206Z,1.00
2023-03-10T05:19:23.518Z,1.00
2023-03-10T05:21:57.043Z,99.90
2023-03-10T05:24:25.689Z,99.90
2023-03-10T05:26:54.013Z,1.00
2023-03-10T05:29:22.305Z,1.00
2023-03-10T05:31:50.722Z,1.00
2023-03-10T05:34:18.934Z,1.00
2023-03-10T05:36:58.274Z,1.00
2023-03-10T05:39:26.463Z,1.00
2023-03-10T05:41:54.764Z,1.00
2023-03-10T05:44:25.748Z,1.00
2023-03-10T05:46:54.672Z,1.00
2023-03-10T05:49:22.910Z,1.00
2023-03-10T05:51:52.975Z,1.00
2023-03-10T05:54:21.310Z,1.00
2023-03-10T05:56:54.945Z,1.00
2023-03-10T06:01:49.302Z,1.00
2023-03-10T06:04:17.865Z,1.00
2023-03-10T06:07:08.171Z,1.00
2023-03-10T06:09:58.793Z,1.00
2023-03-10T06:12:28.021Z,1.00
2023-03-10T06:14:56.621Z,1.00
2023-03-10T06:17:25.322Z,1.00
2023-03-10T06:20:01.157Z,1.00
2023-03-10T06:26:24.707Z,1.00
2023-03-10T06:28:56.438Z,1.00
2023-03-10T06:31:29.489Z,1.00
2023-03-10T06:34:03.190Z,1.00
2023-03-10T06:36:34.817Z,1.00
2023-03-10T06:39:27.703Z,1.00
2023-03-10T06:42:28.866Z,1.00
2023-03-10T06:44:57.401Z,1.00
2023-03-10T06:47:26.030Z,99.90
2023-03-10T06:49:54.792Z,99.90
2023-03-10T06:52:23.301Z,99.90
2023-03-10T06:54:51.755Z,99.90
2023-03-10T06:57:22.569Z,99.90
2023-03-10T07:00:11.370Z,99.90
2023-03-10T07:05:47.565Z,99.90
2023-03-10T07:08:16.312Z,99.90
2023-03-10T07:10:44.572Z,99.90
2023-03-10T07:13:16.427Z,99.90
2023-03-10T07:15:47.458Z,99.90
2023-03-10T07:21:47.306Z,99.90
2023-03-10T07:24:17.625Z,99.90
2023-03-10T07:26:45.892Z,99.90
2023-03-10T07:29:15.487Z,99.90
2023-03-10T07:31:45.785Z,99.90
2023-03-10T07:34:14.004Z,99.90
2023-03-10T07:36:42.191Z,99.90
2023-03-10T07:39:15.768Z,99.90
2023-03-10T07:41:46.158Z,99.90
2023-03-10T07:44:29.623Z,99.90
2023-03-10T07:47:13.573Z,99.90
2023-03-10T07:54:00.450Z,1.00
2023-03-10T07:57:01.046Z,99.90
2023-03-10T07:59:31.682Z,99.90
2023-03-10T08:02:00.518Z,99.90
2023-03-10T08:04:32.031Z,99.90
2023-03-10T08:07:02.414Z,99.90
2023-03-10T08:09:31.345Z,99.90
2023-03-10T08:11:59.976Z,99.90
2023-03-10T08:14:32.005Z,99.90
2023-03-10T08:17:00.707Z,99.90
2023-03-10T08:19:29.524Z,99.90
2023-03-10T08:22:11.582Z,99.90
2023-03-10T08:24:51.108Z,99.90
2023-03-10T08:27:31.047Z,99.90
2023-03-10T08:30:01.364Z,99.90
2023-03-10T08:32:33.705Z,99.90
2023-03-10T08:35:02.446Z,99.90
2023-03-10T08:37:30.876Z,99.90
2023-03-10T08:40:05.991Z,99.90
2023-03-10T08:42:39.338Z,99.90
2023-03-10T08:45:09.811Z,99.90
2023-03-10T08:47:50.318Z,99.90
2023-03-10T08:50:18.944Z,99.90
2023-03-10T08:53:07.529Z,99.90
2023-03-10T08:55:40.192Z,99.90
2023-03-10T08:58:09.886Z,99.90
2023-03-10T09:00:39.524Z,99.90
2023-03-10T09:03:13.232Z,99.90
2023-03-10T09:05:53.502Z,99.90
2023-03-10T09:08:27.646Z,99.90
2023-03-10T09:10:56.794Z,99.90
2023-03-10T09:13:33.635Z,99.90
2023-03-10T09:16:03.730Z,99.90
2023-03-10T09:18:32.980Z,99.90
2023-03-10T09:21:01.591Z,99.90
2023-03-10T09:23:38.938Z,99.90
2023-03-10T09:26:28.265Z,99.90
2023-03-10T09:28:57.586Z,99.90
2023-03-10T09:31:31.568Z,99.90
2023-03-10T09:33:59.772Z,99.90
2023-03-10T09:36:33.487Z,1.00
2023-03-10T09:39:08.139Z,99.90
2023-03-10T09:42:07.791Z,1.00
2023-03-10T09:44:44.910Z,99.90
2023-03-10T09:47:45.198Z,99.90
2023-03-10T09:50:30.882Z,1.00
2023-03-10T09:53:08.023Z,1.00
2023-03-10T09:55:47.421Z,1.00
2023-03-10T09:58:24.519Z,1.00
2023-03-10T10:00:57.655Z,1.00
2023-03-10T10:03:53.808Z,1.00
2023-03-10T10:10:01.110Z,99.90
2023-03-10T10:12:31.795Z,1.00
2023-03-10T10:15:09.711Z,1.00
2023-03-10T10:18:05.347Z,1.00
2023-03-10T10:20:49.907Z,1.00
2023-03-10T10:23:25.605Z,1.00
2023-03-10T10:25:54.811Z,1.00
2023-03-10T10:28:33.461Z,1.00
2023-03-10T10:31:19.593Z,1.00
2023-03-10T10:34:07.121Z,1.00
2023-03-10T10:36:58.152Z,99.90
2023-03-10T10:39:43.000Z,1.00
2023-03-10T10:42:32.854Z,99.90
2023-03-10T10:45:26.257Z,99.90
2023-03-10T10:52:13.324Z,99.90
2023-03-10T10:55:12.459Z,99.90
2023-03-10T10:57:46.246Z,99.90
2023-03-10T11:00:27.250Z,99.90
2023-03-10T11:02:55.985Z,99.90
2023-03-10T11:05:47.552Z,99.90
2023-03-10T11:08:40.273Z,99.90
2023-03-10T11:11:25.033Z,99.90
2023-03-10T11:17:36.165Z,94.90
2023-03-10T11:20:16.130Z,92.10
2023-03-10T11:26:51.234Z,90.00
2023-03-10T11:29:36.825Z,99.90
2023-03-10T11:35:45.962Z,99.90
2023-03-10T11:44:51.621Z,99.90
2023-03-10T11:47:27.306Z,99.90
2023-03-10T11:50:04.367Z,99.90
2023-03-10T11:52:35.328Z,99.90
2023-03-10T11:55:09.391Z,99.90
2023-03-10T11:57:46.004Z,99.90
2023-03-10T12:00:26.917Z,99.90
2023-03-10T12:03:07.634Z,97.60
2023-03-10T12:09:07.199Z,95.80
2023-03-10T12:11:44.879Z,86.90
2023-03-10T12:14:19.412Z,84.20
2023-03-10T12:17:01.540Z,91.90
2023-03-10T12:19:33.930Z,71.00
2023-03-10T12:22:28.002Z,45.10
2023-03-10T12:24:56.238Z,55.40
2023-03-10T12:27:54.677Z,61.70
2023-03-10T12:31:01.950Z,59.50
2023-03-10T12:33:46.354Z,58.00
2023-03-10T12:36:39.144Z,52.80
2023-03-10T12:39:40.953Z,41.50
2023-03-10T12:42:39.592Z,38.80
2023-03-10T12:45:21.456Z,32.50
2023-03-10T12:47:59.495Z,14.80
2023-03-10T12:50:50.138Z,41.30
2023-03-10T13:03:32.760Z,12.70
2023-03-10T13:06:49.712Z,6.50
2023-03-10T13:09:34.345Z,4.80
2023-03-10T13:12:08.183Z,1.00
2023-03-10T13:18:12.875Z,1.00
2023-03-10T13:21:02.248Z,1.00
2023-03-10T13:23:34.400Z,1.00
2023-03-10T13:26:04.677Z,1.00
2023-03-10T13:28:43.585Z,1.00
2023-03-10T13:31:41.525Z,1.00
2023-03-10T13:34:16.193Z,1.00
2023-03-10T13:36:44.557Z,1.00
2023-03-10T13:39:19.991Z,1.40
2023-03-10T13:41:54.594Z,1.00
2023-03-10T13:44:25.473Z,1.00
2023-03-10T13:46:56.820Z,1.00
2023-03-10T13:49:29.874Z,1.00
2023-03-10T13:52:10.266Z,1.00
2023-03-10T14:01:21.514Z,5.90
2023-03-10T14:04:02.946Z,11.20
2023-03-10T14:07:03.759Z,17.00
2023-03-10T14:09:32.655Z,44.80
2023-03-10T14:12:03.755Z,61.40
2023-03-10T14:14:53.409Z,55.70
2023-03-10T14:17:33.826Z,55.40
2023-03-10T14:20:02.453Z,40.60
2023-03-10T14:22:35.328Z,43.10
2023-03-10T14:25:07.427Z,51.70
2023-03-10T14:27:40.565Z,40.60
2023-03-10T14:30:35.078Z,45.70
2023-03-10T14:33:24.078Z,44.80
2023-03-10T14:35:55.335Z,52.80
2023-03-10T14:38:25.031Z,73.40
2023-03-10T14:41:16.904Z,74.20
2023-03-10T14:44:12.384Z,99.90
2023-03-10T14:46:54.595Z,99.90
2023-03-10T14:49:28.238Z,99.90
2023-03-10T14:51:57.843Z,1.00
2023-03-10T14:54:27.953Z,1.00
2023-03-10T14:57:08.784Z,99.90
2023-03-10T14:59:41.535Z,99.90
2023-03-10T15:02:20.204Z,99.90
2023-03-10T15:04:48.568Z,1.00
2023-03-10T15:07:17.754Z,99.90
2023-03-10T15:09:54.597Z,1.00
2023-03-10T15:12:27.713Z,1.00
2023-03-10T15:14:57.539Z,1.00
2023-03-10T15:17:25.777Z,1.00
2023-03-10T15:23:56.952Z,99.90
2023-03-10T15:26:32.578Z,1.00
2023-03-10T15:29:10.263Z,99.90
2023-03-10T15:41:56.061Z,1.00
2023-03-10T15:48:34.934Z,99.90
2023-03-10T15:54:46.366Z,99.90
2023-03-10T15:58:06.745Z,99.90
2023-03-10T16:00:56.858Z,99.90
2023-03-10T16:03:29.677Z,99.90
2023-03-10T16:05:58.276Z,99.90
2023-03-10T16:08:27.068Z,99.90
2023-03-10T16:10:57.959Z,99.90
2023-03-10T16:13:26.843Z,99.90
2023-03-10T16:15:55.215Z,99.90
2023-03-10T16:18:23.445Z,99.90
2023-03-10T16:20:58.837Z,99.90
2023-03-10T16:23:27.347Z,99.90
2023-03-10T16:26:11.257Z,99.90
2023-03-10T16:29:03.775Z,99.90
2023-03-10T16:31:32.240Z,99.90
2023-03-10T16:40:50.124Z,99.90
2023-03-10T16:43:18.954Z,99.90
2023-03-10T16:45:48.938Z,99.90
2023-03-10T16:52:02.030Z,99.90
2023-03-10T16:54:45.605Z,99.90
2023-03-10T16:57:16.951Z,1.00
2023-03-10T16:59:57.626Z,99.90
2023-03-10T17:05:33.875Z,1.00
2023-03-10T17:08:08.613Z,99.90
2023-03-10T17:10:36.912Z,99.90
2023-03-10T17:19:11.935Z,1.00
2023-03-10T17:21:41.654Z,1.00
2023-03-10T17:24:15.218Z,99.90
2023-03-10T17:26:47.964Z,1.00
2023-03-10T17:29:17.994Z,99.90
2023-03-10T17:31:50.474Z,99.90
2023-03-10T17:34:20.522Z,1.00
2023-03-10T17:36:51.797Z,99.90
2023-03-10T17:39:21.967Z,99.90
2023-03-10T17:41:50.726Z,1.00
2023-03-10T17:44:20.915Z,1.00
2023-03-10T17:46:50.378Z,99.90
2023-03-10T17:49:19.336Z,99.90
2023-03-10T17:51:50.899Z,99.90
2023-03-10T17:54:21.387Z,99.90
2023-03-10T17:56:52.058Z,99.90
2023-03-10T17:59:21.917Z,99.90
2023-03-10T18:01:50.648Z,99.90
2023-03-10T18:04:24.281Z,99.90
2023-03-10T18:06:53.228Z,99.90
2023-03-10T18:09:21.833Z,99.90
2023-03-10T18:11:49.988Z,99.90
2023-03-10T18:14:39.164Z,99.90
2023-03-10T18:17:34.178Z,99.90
2023-03-10T18:20:10.230Z,1.00
2023-03-10T18:22:49.685Z,99.90
2023-03-10T18:25:18.632Z,1.00
2023-03-10T18:30:34.117Z,1.00
2023-03-10T18:33:05.243Z,1.00
2023-03-10T18:35:33.741Z,1.00
2023-03-10T18:38:05.275Z,99.90
2023-03-10T18:40:36.182Z,1.00
2023-03-10T18:43:05.740Z,99.90
2023-03-10T18:45:35.389Z,99.90
2023-03-10T18:48:03.575Z,99.90
2023-03-10T18:50:33.414Z,99.90
2023-03-10T18:53:04.873Z,1.00
2023-03-10T18:55:34.417Z,95.90
2023-03-10T18:58:26.242Z,1.00
2023-03-10T19:00:56.171Z,1.00
2023-03-10T19:05:54.928Z,1.00
2023-03-10T19:08:27.357Z,99.90
2023-03-10T19:11:01.295Z,99.90
2023-03-10T19:13:33.229Z,99.90
2023-03-10T19:16:09.030Z,91.10
2023-03-10T19:18:56.195Z,90.40
2023-03-10T19:24:28.212Z,44.20
2023-03-10T19:26:56.768Z,46.20
2023-03-10T19:29:24.942Z,1.00
2023-03-10T19:31:53.211Z,1.00
2023-03-10T19:34:47.661Z,1.00
2023-03-10T19:37:32.299Z,1.00
2023-03-10T19:40:02.101Z,1.00
2023-03-10T19:42:30.494Z,1.00
2023-03-10T19:44:58.843Z,1.00
2023-03-10T19:47:27.443Z,1.00
2023-03-10T19:49:55.731Z,1.00
2023-03-10T19:52:24.000Z,1.00
2023-03-10T19:55:05.209Z,1.00
2023-03-10T19:57:41.094Z,1.00
2023-03-10T20:00:13.969Z,1.00
2023-03-10T20:02:44.681Z,1.00
2023-03-10T20:05:14.963Z,1.00
2023-03-10T20:07:44.228Z,1.00
2023-03-10T20:10:13.861Z,1.00
2023-03-10T20:12:44.106Z,1.00
2023-03-10T20:15:12.992Z,1.00
2023-03-10T20:17:42.684Z,1.00
2023-03-10T20:20:15.374Z,1.00
2023-03-10T20:22:45.511Z,1.00
2023-03-10T20:25:16.617Z,1.00
2023-03-10T20:27:48.387Z,1.00
2023-03-10T20:30:20.301Z,1.00
2023-03-10T20:39:14.255Z,1.00
2023-03-10T20:42:08.175Z,1.00
2023-03-10T20:44:40.187Z,1.00
2023-03-10T20:47:09.267Z,1.00
2023-03-10T20:49:37.635Z,1.00
2023-03-10T20:52:07.623Z,1.00
2023-03-10T20:54:35.956Z,1.00
2023-03-10T20:57:08.332Z,1.00
2023-03-10T20:59:40.327Z,99.90
2023-03-10T21:02:16.212Z,1.00
2023-03-10T21:04:44.653Z,1.00
2023-03-10T21:07:12.934Z,1.00
2023-03-10T21:09:42.983Z,1.00
2023-03-10T21:12:42.702Z,1.00
2023-03-10T21:15:20.937Z,1.00
2023-03-10T21:18:25.051Z,1.00
2023-03-10T21:21:26.035Z,1.00
2023-03-10T21:23:54.402Z,1.00
2023-03-10T21:26:22.742Z,1.00
2023-03-10T21:28:54.535Z,1.00
2023-03-10T21:31:42.120Z,1.00
2023-03-10T21:34:10.602Z,1.00
2023-03-10T21:36:40.315Z,1.00
2023-03-10T21:42:42.813Z,1.00
2023-03-10T21:45:14.716Z,1.00
2023-03-10T21:47:44.728Z,1.00
2023-03-10T21:50:14.371Z,1.00
2023-03-10T21:52:43.092Z,1.00
2023-03-10T21:55:20.545Z,1.00
2023-03-10T21:57:49.071Z,1.00
2023-03-10T22:00:20.983Z,1.00
2023-03-10T22:02:51.022Z,1.00
2023-03-10T22:05:26.740Z,1.00
2023-03-10T22:07:56.992Z,1.00
2023-03-10T22:10:25.727Z,1.00
2023-03-10T22:12:53.988Z,1.00
2023-03-10T22:15:24.379Z,1.00
2023-03-10T22:17:59.732Z,1.00
2023-03-10T22:20:29.116Z,1.00
2023-03-10T22:23:00.531Z,1.00
2023-03-10T22:25:29.097Z,1.00
2023-03-10T22:27:58.213Z,1.00
2023-03-10T22:30:28.280Z,1.00
2023-03-10T22:32:58.059Z,1.00
2023-03-10T22:35:27.658Z,1.00
2023-03-10T22:37:56.122Z,1.00
2023-03-10T22:40:26.283Z,1.00
2023-03-10T22:45:41.883Z,1.00
2023-03-10T22:48:11.713Z,1.00
2023-03-10T22:50:43.595Z,1.00
2023-03-10T22:53:15.250Z,1.00
2023-03-10T22:55:43.895Z,1.00
2023-03-10T22:58:14.336Z,1.00
2023-03-10T23:00:43.506Z,1.00
2023-03-10T23:03:13.993Z,1.00
2023-03-10T23:08:48.615Z,1.00
2023-03-10T23:11:19.476Z,1.00
2023-03-10T23:13:47.803Z,1.00
2023-03-10T23:16:18.140Z,1.00
2023-03-10T23:18:48.261Z,1.00
2023-03-10T23:21:16.967Z,1.00
2023-03-10T23:23:48.320Z,1.00
2023-03-10T23:26:17.151Z,1.00
2023-03-10T23:28:45.990Z,1.00
2023-03-10T23:31:17.242Z,1.00
2023-03-10T23:33:47.316Z,1.00
2023-03-10T23:36:15.808Z,1.00
2023-03-10T23:38:44.422Z,1.00
2023-03-10T23:41:13.160Z,1.00
2023-03-10T23:43:41.875Z,1.00
2023-03-10T23:46:14.650Z,1.00
2023-03-10T23:48:43.267Z,1.00
2023-03-10T23:51:22.074Z,1.00
2023-03-10T23:53:57.329Z,1.00
2023-03-10T23:56:26.233Z,1.00
2023-03-10T23:58:59.071Z,1.00
